Time;durP1;ratioP1;P1;durP2;ratioP2;P2;SDS_P1;SDS_P2;PMS_P1;PMS_P2;Temp;Humidity;BMP_temperature;BMP_pressure;BME280_temperature;BME280_humidity;BME280_pressure;Samples;Min_cycle;Max_cycle;Signal;HPM_P1;HPM_P2
2022/09/13 00:00:58;;;;;;;2.42;1.60;;;;;;;10.77;79.94;95419.36;1713470;84;21546;-73
2022/09/13 00:03:27;;;;;;;2.50;1.70;;;;;;;10.71;79.90;95418.19;1713312;83;20996;-73
2022/09/13 00:05:54;;;;;;;5.45;1.75;;;;;;;10.65;79.77;95417.45;1712758;83;21517;-73
2022/09/13 00:08:20;;;;;;;2.20;1.60;;;;;;;10.56;80.53;95415.43;1705025;84;21008;-74
2022/09/13 00:10:48;;;;;;;3.08;1.30;;;;;;;10.44;80.70;95417.00;1705492;84;20996;-74
2022/09/13 00:13:16;;;;;;;5.25;1.60;;;;;;;10.39;80.85;95422.38;1705581;84;21542;-74
2022/09/13 00:15:48;;;;;;;2.75;1.70;;;;;;;10.39;81.25;95421.51;1705438;83;21040;-74
2022/09/13 00:18:17;;;;;;;2.75;1.60;;;;;;;10.32;80.95;95421.20;1705760;83;21005;-74
2022/09/13 00:20:44;;;;;;;2.22;1.50;;;;;;;10.28;80.43;95415.56;1705424;83;21542;-74
2022/09/13 00:23:11;;;;;;;4.47;1.62;;;;;;;10.34;80.67;95422.05;1705375;83;21079;-74
2022/09/13 00:25:38;;;;;;;2.12;1.52;;;;;;;10.33;80.15;95415.02;1705577;84;21071;-74
2022/09/13 00:28:05;;;;;;;2.30;1.60;;;;;;;10.32;79.99;95415.94;1705444;84;21013;-74
2022/09/13 00:30:33;;;;;;;3.62;1.70;;;;;;;10.23;80.30;95414.76;1705473;84;21055;-75
2022/09/13 00:33:03;;;;;;;4.00;1.90;;;;;;;10.10;80.65;95409.73;1705577;83;21565;-75
2022/09/13 00:35:28;;;;;;;2.22;1.50;;;;;;;10.06;80.61;95406.75;1705416;84;21554;-75
2022/09/13 00:37:54;;;;;;;1.95;1.70;;;;;;;10.05;80.81;95406.77;1705566;83;21062;-74
2022/09/13 00:40:21;;;;;;;1.90;1.80;;;;;;;10.03;80.57;95408.56;1705592;84;21012;-74
2022/09/13 00:42:47;;;;;;;5.80;1.82;;;;;;;9.95;80.49;95410.92;1705456;83;21075;-74
2022/09/13 00:45:17;;;;;;;5.20;2.65;;;;;;;9.97;80.56;95409.09;1705509;83;21455;-74
2022/09/13 00:47:55;;;;;;;5.83;1.92;;;;;;;10.00;80.36;95413.44;1705524;83;21083;-74
2022/09/13 00:50:40;;;;;;;3.55;1.47;;;;;;;10.02;80.50;95409.47;1705320;84;21506;-74
2022/09/13 00:53:24;;;;;;;3.08;1.40;;;;;;;10.01;80.12;95407.75;1704383;84;21580;-74
2022/09/13 00:55:56;;;;;;;3.75;2.40;;;;;;;9.98;80.00;95407.36;1705486;83;21024;-74
2022/09/13 00:58:30;;;;;;;4.00;1.77;;;;;;;9.86;80.01;95403.63;1705511;83;21059;-74
2022/09/13 01:00:59;;;;;;;7.85;2.17;;;;;;;9.80;80.80;95407.23;1704629;84;21000;-74
2022/09/13 01:03:30;;;;;;;3.25;1.70;;;;;;;9.71;80.49;95409.59;1685319;84;21028;-75
2022/09/13 01:06:02;;;;;;;4.87;2.20;;;;;;;9.67;80.48;95401.77;1705466;84;21075;-75
2022/09/13 01:08:31;;;;;;;2.55;1.95;;;;;;;9.71;80.73;95410.05;1704568;84;21040;-75
2022/09/13 01:11:00;;;;;;;3.65;2.33;;;;;;;9.75;80.37;95409.97;1705356;83;20992;-75
2022/09/13 01:13:33;;;;;;;2.63;1.90;;;;;;;9.78;80.53;95402.46;1705580;83;21028;-75
2022/09/13 01:16:00;;;;;;;4.70;2.10;;;;;;;9.79;79.83;95402.00;1705721;84;21518;-75
2022/09/13 01:18:27;;;;;;;4.28;2.15;;;;;;;9.65;79.63;95408.41;1685381;84;21081;-75
2022/09/13 01:21:37;;;;;;;3.35;2.37;;;;;;;9.54;79.89;95403.30;1705511;84;21039;-75
2022/09/13 01:24:32;;;;;;;3.30;1.87;;;;;;;9.52;80.85;95397.64;1705396;83;21553;-75
2022/09/13 01:27:48;;;;;;;2.83;2.13;;;;;;;9.34;79.71;95395.34;1705111;83;21052;-74
2022/09/13 01:30:21;;;;;;;2.58;2.10;;;;;;;9.17;80.76;95388.61;1612145;88;21112;-74
2022/09/13 01:33:11;;;;;;;2.83;2.00;;;;;;;9.04;80.71;95393.62;1749085;82;21008;-74
2022/09/13 01:36:06;;;;;;;5.70;2.30;;;;;;;8.92;82.29;95393.39;1712918;83;21035;-73
2022/09/13 01:39:11;;;;;;;4.40;1.90;;;;;;;8.84;81.54;95392.61;1713307;84;21015;-74
2022/09/13 01:42:05;;;;;;;4.40;1.80;;;;;;;8.83;81.58;95395.70;1749202;81;21486;-73
2022/09/13 01:45:07;;;;;;;4.10;1.50;;;;;;;8.81;83.03;95395.30;1738361;82;22232;-74
2022/09/13 01:47:54;;;;;;;2.50;1.57;;;;;;;8.80;82.95;95398.37;1713368;83;21064;-73
2022/09/13 01:51:04;;;;;;;3.63;1.53;;;;;;;8.70;83.37;95403.80;1749267;81;21056;-73
2022/09/13 01:53:51;;;;;;;2.77;1.50;;;;;;;8.62;82.56;95407.86;1749180;81;21570;-73
2022/09/13 01:56:41;;;;;;;4.13;1.70;;;;;;;8.58;83.44;95399.13;1713287;83;21015;-73
2022/09/13 01:59:22;;;;;;;3.07;1.70;;;;;;;8.57;82.72;95400.48;1713373;84;21050;-73
2022/09/13 02:01:56;;;;;;;3.20;1.40;;;;;;;8.50;82.50;95398.37;1749120;81;21024;-73
2022/09/13 02:04:35;;;;;;;2.73;1.30;;;;;;;8.47;82.53;95397.10;1748855;81;21058;-73
2022/09/13 02:07:07;;;;;;;3.27;1.60;;;;;;;8.54;82.51;95396.55;1742500;82;21063;-73
2022/09/13 02:09:38;;;;;;;6.20;1.77;;;;;;;8.46;82.75;95396.66;1713077;84;21085;-73
2022/09/13 02:12:19;;;;;;;3.43;2.00;;;;;;;8.49;82.63;95395.30;1713405;84;21446;-73
2022/09/13 02:14:58;;;;;;;2.20;1.50;;;;;;;8.53;83.09;95385.62;1712778;83;21031;-73
2022/09/13 02:17:30;;;;;;;3.20;1.60;;;;;;;8.52;83.37;95381.27;1712933;84;21019;-73
2022/09/13 02:20:04;;;;;;;2.23;1.30;;;;;;;8.55;83.29;95383.39;1749107;81;21026;-74
2022/09/13 02:22:36;;;;;;;2.33;1.50;;;;;;;8.52;82.65;95373.38;1738639;82;21088;-73
2022/09/13 02:25:08;;;;;;;3.70;1.60;;;;;;;8.51;82.83;95376.88;1712381;84;20995;-73
2022/09/13 02:27:37;;;;;;;5.10;1.87;;;;;;;8.52;83.13;95370.30;1749079;81;21015;-73
2022/09/13 02:30:09;;;;;;;2.53;1.57;;;;;;;8.65;83.37;95377.11;1713275;84;21015;-73
2022/09/13 02:32:40;;;;;;;7.63;1.73;;;;;;;8.76;82.67;95373.00;1713171;84;20991;-73
2022/09/13 02:35:27;;;;;;;4.20;2.10;;;;;;;8.71;82.10;95369.56;1749100;81;21044;-73
2022/09/13 02:38:05;;;;;;;2.67;1.60;;;;;;;8.65;82.44;95370.98;1702394;81;21028;-73
2022/09/13 02:40:37;;;;;;;5.80;2.10;;;;;;;8.50;82.40;95377.79;1748534;81;21039;-73
2022/09/13 02:43:11;;;;;;;3.93;1.70;;;;;;;8.41;82.41;95387.97;1713090;83;21046;-73
2022/09/13 02:46:07;;;;;;;1.87;1.67;;;;;;;8.32;82.00;95392.02;1708871;84;21528;-73
2022/09/13 02:48:51;;;;;;;1.70;1.60;;;;;;;8.21;82.33;95389.51;1708704;84;21508;-73
2022/09/13 02:51:44;;;;;;;3.00;1.60;;;;;;;8.15;82.96;95393.09;1685417;84;21010;-73
2022/09/13 02:54:31;;;;;;;6.30;2.37;;;;;;;8.12;82.82;95396.21;1713415;83;21027;-73
2022/09/13 02:57:21;;;;;;;2.20;1.40;;;;;;;8.15;82.94;95398.80;1713075;84;21082;-73
2022/09/13 02:59:48;;;;;;;5.37;1.60;;;;;;;8.10;83.43;95401.92;1713788;84;20994;-73
2022/09/13 03:02:19;;;;;;;1.87;1.57;;;;;;;8.01;82.99;95405.52;1749093;81;21078;-73
2022/09/13 03:04:45;;;;;;;3.17;1.73;;;;;;;7.95;82.58;95404.28;1713284;83;21465;-73
2022/09/13 03:07:14;;;;;;;3.93;1.63;;;;;;;7.91;82.34;95403.88;1751655;81;21082;-73
2022/09/13 03:09:49;;;;;;;2.50;1.47;;;;;;;7.94;82.70;95407.36;1726164;83;20982;-74
2022/09/13 03:12:50;;;;;;;2.27;1.57;;;;;;;8.00;82.60;95409.05;1726346;83;21010;-73
2022/09/13 03:15:22;;;;;;;2.03;1.47;;;;;;;8.01;82.35;95406.41;1726357;83;21519;-73
2022/09/13 03:17:57;;;;;;;2.60;1.40;;;;;;;8.03;82.24;95407.23;1726203;83;21066;-73
2022/09/13 03:20:37;;;;;;;3.93;1.30;;;;;;;7.98;81.82;95401.61;1726114;83;21506;-73
2022/09/13 03:23:42;;;;;;;3.67;1.33;;;;;;;7.83;81.64;95396.09;1673583;84;21098;-73
2022/09/13 03:26:33;;;;;;;3.13;1.07;;;;;;;7.78;82.58;95400.07;1708309;84;21018;-73
2022/09/13 03:29:20;;;;;;;2.70;1.30;;;;;;;7.74;82.27;95391.82;1708413;84;21020;-73
2022/09/13 03:31:58;;;;;;;2.03;1.20;;;;;;;7.67;82.39;95399.78;1707976;84;21521;-73
2022/09/13 03:34:46;;;;;;;2.90;1.30;;;;;;;7.62;82.36;95397.20;1696238;84;21034;-73
2022/09/13 03:37:20;;;;;;;4.07;1.30;;;;;;;7.61;82.58;95398.09;1708077;84;20980;-73
2022/09/13 03:39:59;;;;;;;3.63;1.17;;;;;;;7.66;83.00;95391.04;1695969;84;21034;-73
2022/09/13 03:42:49;;;;;;;4.13;1.30;;;;;;;7.65;83.34;95391.05;1708286;84;21000;-73
2022/09/13 03:45:20;;;;;;;5.10;1.30;;;;;;;7.64;83.75;95394.57;1707757;84;21522;-73
2022/09/13 03:47:49;;;;;;;1.57;1.20;;;;;;;7.68;83.43;95392.31;1684362;84;21015;-73
2022/09/13 03:50:20;;;;;;;1.47;0.97;;;;;;;7.60;82.68;95387.15;1708279;84;21063;-73
2022/09/13 03:52:50;;;;;;;4.50;1.20;;;;;;;7.59;82.65;95392.85;1708267;84;21497;-73
2022/09/13 03:55:20;;;;;;;3.37;1.27;;;;;;;7.66;82.80;95391.45;1708187;84;21020;-73
2022/09/13 03:57:47;;;;;;;2.50;1.10;;;;;;;7.74;83.33;95391.82;1708516;84;21478;-73
2022/09/13 04:00:14;;;;;;;2.63;1.10;;;;;;;7.86;83.08;95393.45;1708283;84;21092;-73
2022/09/13 04:02:41;;;;;;;1.20;1.10;;;;;;;7.91;82.62;95389.43;1708265;84;21000;-73
2022/09/13 04:05:07;;;;;;;4.13;1.40;;;;;;;7.97;83.08;95394.63;1708290;84;21027;-73
2022/09/13 04:07:34;;;;;;;3.03;1.40;;;;;;;8.09;83.50;95399.75;1706323;84;21036;-73
2022/09/13 04:10:01;;;;;;;4.30;1.60;;;;;;;8.18;83.32;95396.98;1699783;84;20984;-73
2022/09/13 04:12:30;;;;;;;1.97;1.37;;;;;;;8.30;82.99;95392.48;1699938;84;21000;-73
2022/09/13 04:14:55;;;;;;;2.07;1.23;;;;;;;8.39;82.84;95385.77;1699895;84;21091;-73
2022/09/13 04:17:22;;;;;;;5.80;1.50;;;;;;;8.42;82.51;95385.33;1700150;84;21012;-73
2022/09/13 04:19:49;;;;;;;3.40;1.30;;;;;;;8.34;81.82;95392.42;1699910;84;21023;-73
2022/09/13 04:22:15;;;;;;;3.00;1.50;;;;;;;8.13;81.66;95386.11;1700061;84;21494;-73
2022/09/13 04:24:42;;;;;;;3.90;1.40;;;;;;;8.01;82.31;95384.08;1699855;84;21052;-73
2022/09/13 04:27:11;;;;;;;4.90;1.90;;;;;;;7.99;83.83;95389.78;1700001;84;21026;-73
2022/09/13 04:29:38;;;;;;;5.10;2.40;;;;;;;7.96;83.41;95392.45;1699950;84;21085;-73
2022/09/13 04:32:05;;;;;;;6.00;2.57;;;;;;;7.95;83.22;95402.97;1699932;84;21518;-73
2022/09/13 04:34:31;;;;;;;4.87;2.20;;;;;;;7.92;83.25;95406.95;1699673;84;21016;-73
2022/09/13 04:36:58;;;;;;;3.77;1.30;;;;;;;7.91;83.37;95415.70;1699921;84;21068;-73
2022/09/13 04:39:25;;;;;;;2.37;1.30;;;;;;;7.89;83.42;95409.17;1699907;84;21459;-73
2022/09/13 04:41:53;;;;;;;2.37;1.20;;;;;;;7.92;83.25;95411.76;1699952;84;21079;-73
2022/09/13 04:44:23;;;;;;;1.20;0.97;;;;;;;8.01;83.31;95413.39;1699970;84;20972;-73
2022/09/13 04:46:49;;;;;;;3.90;1.20;;;;;;;8.03;83.51;95413.80;1699965;84;21032;-73
2022/09/13 04:49:18;;;;;;;1.43;0.93;;;;;;;8.11;83.68;95408.91;1700088;84;21526;-73
2022/09/13 04:51:46;;;;;;;4.30;1.20;;;;;;;8.16;83.32;95409.72;1699947;84;21455;-73
2022/09/13 04:54:13;;;;;;;47.37;4.57;;;;;;;8.10;83.77;95409.36;1699951;84;21044;-74
2022/09/13 04:56:40;;;;;;;4.10;1.23;;;;;;;8.10;83.34;95409.81;1699700;84;21055;-73
2022/09/13 04:59:09;;;;;;;3.07;1.30;;;;;;;8.06;83.38;95411.58;1699816;84;21112;-75
2022/09/13 05:01:36;;;;;;;10.10;2.10;;;;;;;8.12;83.63;95396.21;1699543;84;22181;-72
2022/09/13 05:04:04;;;;;;;10.03;2.03;;;;;;;8.21;83.53;95392.13;1699483;84;21088;-69
2022/09/13 05:06:31;;;;;;;11.40;3.30;;;;;;;8.34;84.33;95402.94;1699253;84;21055;-73
2022/09/13 05:08:58;;;;;;;13.87;3.37;;;;;;;8.49;84.72;95398.37;1702599;84;21123;-74
2022/09/13 05:11:27;;;;;;;7.60;2.23;;;;;;;8.55;84.06;95386.48;1704637;84;21028;-68
2022/09/13 05:13:57;;;;;;;2.70;1.30;;;;;;;8.66;83.53;95390.67;1704515;84;21064;-68
2022/09/13 05:16:28;;;;;;;3.50;1.37;;;;;;;8.77;83.30;95389.64;1704673;84;21004;-73
2022/09/13 05:18:55;;;;;;;3.00;1.47;;;;;;;8.84;82.53;95393.92;1704718;84;21537;-71
2022/09/13 05:21:23;;;;;;;3.53;1.50;;;;;;;8.86;82.23;95392.15;1705056;84;21040;-75
2022/09/13 05:23:52;;;;;;;3.43;1.77;;;;;;;8.89;82.44;95392.09;1704753;84;21059;-68
2022/09/13 05:26:21;;;;;;;5.83;2.07;;;;;;;8.96;82.25;95391.11;1704644;84;20993;-77
2022/09/13 05:28:48;;;;;;;4.80;1.40;;;;;;;9.00;82.55;95397.22;1704639;84;21051;-74
2022/09/13 05:31:19;;;;;;;5.17;2.07;;;;;;;9.05;82.71;95399.33;1705138;84;21524;-70
2022/09/13 05:33:51;;;;;;;7.17;2.27;;;;;;;9.13;83.37;95395.26;1705439;84;21466;-71
2022/09/13 05:36:17;;;;;;;4.43;1.47;;;;;;;9.24;83.39;95394.16;1705183;84;21044;-70
2022/09/13 05:38:44;;;;;;;8.83;2.23;;;;;;;9.27;82.62;95395.88;1705276;84;21521;-71
2022/09/13 05:41:11;;;;;;;6.53;3.27;;;;;;;9.37;82.78;95390.02;1704883;84;21032;-70
2022/09/13 05:43:37;;;;;;;4.40;2.00;;;;;;;9.48;82.99;95391.58;1705023;84;21016;-75
2022/09/13 05:46:12;;;;;;;2.62;1.25;;;;;;;9.58;82.60;95390.11;1704903;84;21534;-74
2022/09/13 05:48:39;;;;;;;4.40;1.22;;;;;;;9.66;81.95;95392.14;1705082;84;21044;-72
2022/09/13 05:51:13;;;;;;;1.57;1.42;;;;;;;9.71;81.77;95390.30;1704840;84;21032;-74
2022/09/13 05:53:42;;;;;;;5.17;1.20;;;;;;;9.77;81.73;95398.06;1705072;84;21484;-74
2022/09/13 05:56:13;;;;;;;5.60;1.43;;;;;;;9.84;81.50;95399.70;1704769;84;21070;-77
2022/09/13 05:58:42;;;;;;;2.60;1.17;;;;;;;9.91;81.45;95405.28;1705044;84;21062;-69
2022/09/13 06:01:12;;;;;;;7.55;2.30;;;;;;;10.03;81.38;95412.52;1704932;84;21024;-69
2022/09/13 06:03:39;;;;;;;8.75;4.90;;;;;;;10.15;81.60;95414.91;1705031;84;20996;-69
2022/09/13 06:06:07;;;;;;;16.62;13.13;;;;;;;10.27;80.96;95406.76;1704157;84;21040;-70
2022/09/13 06:08:35;;;;;;;9.63;7.20;;;;;;;10.39;81.01;95396.45;1705919;84;21031;-75
2022/09/13 06:11:11;;;;;;;2.47;2.20;;;;;;;10.55;81.07;95399.63;1726092;83;21094;-70
2022/09/13 06:13:38;;;;;;;5.35;1.85;;;;;;;10.72;81.10;95387.39;1725838;83;21072;-75
2022/09/13 06:16:11;;;;;;;6.75;2.70;;;;;;;10.90;81.02;95385.64;1725924;83;21065;-79
2022/09/13 06:18:38;;;;;;;5.65;1.87;;;;;;;11.09;80.67;95379.48;1726111;83;21136;-80
2022/09/13 06:21:09;;;;;;;3.62;1.90;;;;;;;11.27;78.97;95372.89;1726036;83;21499;-66
2022/09/13 06:23:37;;;;;;;3.17;1.85;;;;;;;11.43;79.08;95373.36;1726364;83;20971;-71
2022/09/13 06:26:10;;;;;;;2.65;1.42;;;;;;;11.61;78.01;95374.20;1726175;83;21061;-70
2022/09/13 06:28:38;;;;;;;5.00;2.08;;;;;;;11.78;77.78;95371.11;1726350;83;21034;-73
2022/09/13 06:31:13;;;;;;;2.95;1.50;;;;;;;11.94;77.76;95373.38;1726145;83;21034;-74
2022/09/13 06:33:42;;;;;;;3.87;1.35;;;;;;;12.10;77.89;95378.67;1725785;83;21014;-75
2022/09/13 06:36:20;;;;;;;4.83;1.37;;;;;;;12.27;76.79;95376.84;1726391;83;21022;-72
2022/09/13 06:38:47;;;;;;;3.52;1.40;;;;;;;12.39;76.25;95376.49;1724300;83;21018;-69
2022/09/13 06:41:18;;;;;;;1.00;0.90;;;;;;;12.53;75.71;95373.46;1726042;83;21526;-68
2022/09/13 06:43:50;;;;;;;2.98;1.65;;;;;;;12.64;75.44;95372.67;1726424;83;21065;-69
2022/09/13 06:46:19;;;;;;;1.45;1.10;;;;;;;12.75;74.18;95377.20;1725309;83;20979;-70
2022/09/13 06:48:45;;;;;;;1.82;1.00;;;;;;;12.84;73.63;95376.50;1726334;83;21526;-72
2022/09/13 06:51:17;;;;;;;2.08;1.10;;;;;;;12.91;73.16;95380.23;1726265;83;21050;-71
2022/09/13 06:53:47;;;;;;;2.87;1.12;;;;;;;12.99;73.10;95379.98;1726023;83;21567;-73
2022/09/13 06:56:26;;;;;;;2.00;1.30;;;;;;;13.08;72.39;95374.41;1726121;83;21292;-73
2022/09/13 06:58:59;;;;;;;2.50;1.72;;;;;;;13.15;71.17;95377.70;1726434;83;21003;-73
2022/09/13 07:01:42;;;;;;;1.52;1.25;;;;;;;13.24;70.92;95381.86;1726168;83;20962;-69
2022/09/13 07:04:12;;;;;;;1.62;1.27;;;;;;;13.30;71.28;95381.22;1726495;83;21022;-72
2022/09/13 07:06:42;;;;;;;2.25;1.50;;;;;;;13.36;70.31;95385.48;1726514;83;20963;-68
2022/09/13 07:09:13;;;;;;;6.45;1.55;;;;;;;13.40;69.19;95382.64;1719645;83;20995;-66
2022/09/13 07:11:41;;;;;;;2.30;1.40;;;;;;;13.44;68.38;95387.41;1749280;82;21501;-67
2022/09/13 07:14:08;;;;;;;1.70;1.40;;;;;;;13.54;69.53;95399.44;1713074;83;21689;-67
2022/09/13 07:16:37;;;;;;;2.33;1.42;;;;;;;13.65;69.12;95393.77;1691759;84;21070;-67
2022/09/13 07:19:09;;;;;;;2.05;1.30;;;;;;;13.75;69.38;95400.48;1748432;81;21109;-68
2022/09/13 07:21:36;;;;;;;2.50;1.47;;;;;;;13.85;68.42;95404.55;1749004;81;21011;-67
2022/09/13 07:24:04;;;;;;;3.12;1.50;;;;;;;13.95;67.95;95404.25;1713226;84;21043;-67
2022/09/13 07:26:31;;;;;;;1.60;1.42;;;;;;;14.00;66.54;95399.65;1747991;81;21449;-67
2022/09/13 07:29:01;;;;;;;1.55;1.40;;;;;;;14.07;66.13;95400.70;1712919;83;21524;-69
2022/09/13 07:31:35;;;;;;;1.32;1.20;;;;;;;14.16;66.62;95399.96;1749171;81;21012;-67
2022/09/13 07:34:09;;;;;;;2.45;1.50;;;;;;;14.24;66.29;95405.42;1713048;84;21039;-69
2022/09/13 07:36:36;;;;;;;3.55;1.60;;;;;;;14.34;65.85;95397.09;1712969;84;21042;-67
2022/09/13 07:39:05;;;;;;;4.60;1.95;;;;;;;14.46;66.00;95397.98;1748971;82;21546;-68
2022/09/13 07:41:33;;;;;;;1.70;1.42;;;;;;;14.57;65.79;95393.19;1713064;84;21473;-66
2022/09/13 07:44:01;;;;;;;2.33;1.55;;;;;;;14.67;65.27;95394.58;1748901;82;21130;-66
2022/09/13 07:46:33;;;;;;;1.92;1.45;;;;;;;14.74;63.71;95399.20;1713540;83;21521;-68
2022/09/13 07:49:01;;;;;;;4.22;1.20;;;;;;;14.82;65.17;95401.56;1749018;82;21576;-65
2022/09/13 07:51:31;;;;;;;3.85;1.65;;;;;;;14.92;64.32;95405.59;1713268;84;21093;-67
2022/09/13 07:54:02;;;;;;;1.87;1.50;;;;;;;14.99;64.33;95383.16;1748120;82;21047;-68
2022/09/13 07:56:33;;;;;;;1.85;1.47;;;;;;;15.15;62.13;95406.88;1749154;81;20984;-67
2022/09/13 07:59:04;;;;;;;1.67;1.40;;;;;;;15.15;62.13;95406.88;1711926;83;21035;-67
2022/09/13 08:01:37;;;;;;;3.10;2.10;;;;;;;15.21;62.56;95408.89;1713331;84;21019;-68
2022/09/13 08:04:08;;;;;;;3.72;2.33;;;;;;;15.30;62.09;95415.19;1713073;83;21038;-69
2022/09/13 08:06:37;;;;;;;3.52;2.00;;;;;;;15.40;61.76;95416.55;1749103;82;21493;-67
2022/09/13 08:09:06;;;;;;;3.55;2.20;;;;;;;15.50;61.57;95412.59;1712750;83;21034;-67
2022/09/13 08:11:37;;;;;;;3.95;1.67;;;;;;;15.63;60.73;95412.95;1749102;81;21020;-67
2022/09/13 08:14:06;;;;;;;2.77;1.20;;;;;;;15.70;61.31;95411.80;1748668;81;21019;-68
2022/09/13 08:16:34;;;;;;;1.50;1.32;;;;;;;15.81;59.51;95421.13;1712974;84;21078;-68
2022/09/13 08:19:03;;;;;;;2.72;1.42;;;;;;;15.89;58.01;95419.00;1749183;81;21031;-67
2022/09/13 08:21:37;;;;;;;1.70;1.60;;;;;;;16.05;59.56;95417.44;1713232;83;21526;-67
2022/09/13 08:24:07;;;;;;;1.77;1.67;;;;;;;16.19;57.60;95418.16;1749244;81;21012;-67
2022/09/13 08:26:35;;;;;;;1.75;1.65;;;;;;;16.32;57.85;95418.01;1712934;83;21031;-66
2022/09/13 08:29:05;;;;;;;1.65;1.47;;;;;;;16.48;58.22;95418.22;1749216;81;21019;-66
2022/09/13 08:31:33;;;;;;;3.45;1.42;;;;;;;16.68;57.45;95413.77;1749211;82;21011;-66
2022/09/13 08:34:00;;;;;;;7.17;1.67;;;;;;;16.81;57.47;95409.20;1713469;84;21003;-67
2022/09/13 08:36:28;;;;;;;2.72;1.90;;;;;;;16.97;56.64;95408.48;1749144;81;21330;-67
2022/09/13 08:38:59;;;;;;;1.90;1.30;;;;;;;17.13;57.36;95410.81;1713261;84;21023;-66
2022/09/13 08:41:47;;;;;;;2.02;1.27;;;;;;;17.20;56.28;95410.91;1748956;82;21544;-67
2022/09/13 08:44:34;;;;;;;2.20;1.50;;;;;;;17.01;53.48;95414.05;1713364;84;20959;-66
2022/09/13 08:47:44;;;;;;;1.67;1.50;;;;;;;17.15;55.76;95405.42;1712877;83;21034;-66
2022/09/13 08:50:25;;;;;;;2.22;1.50;;;;;;;17.38;53.46;95409.64;1748838;82;21019;-67
2022/09/13 08:53:30;;;;;;;1.95;1.70;;;;;;;17.43;54.26;95408.95;1712980;83;21070;-67
2022/09/13 08:56:21;;;;;;;3.20;1.60;;;;;;;17.74;53.75;95412.34;1749103;82;21000;-68
2022/09/13 08:59:20;;;;;;;2.47;1.40;;;;;;;17.83;53.66;95421.70;1713233;84;21029;-69
2022/09/13 09:02:25;;;;;;;1.60;1.40;;;;;;;17.74;53.58;95424.34;1748909;81;21059;-71
2022/09/13 09:05:23;;;;;;;1.65;1.32;;;;;;;17.51;53.98;95417.44;1748724;81;21008;-70
2022/09/13 09:08:04;;;;;;;1.67;1.40;;;;;;;17.64;54.09;95429.27;1713201;83;20990;-71
2022/09/13 09:10:36;;;;;;;2.70;1.62;;;;;;;17.93;53.09;95421.16;1712657;83;21026;-70
2022/09/13 09:13:10;;;;;;;2.25;1.60;;;;;;;18.27;53.64;95417.23;1749166;82;20995;-70
2022/09/13 09:15:47;;;;;;;2.35;1.50;;;;;;;18.31;53.30;95406.80;1713348;84;21011;-70
2022/09/13 09:18:28;;;;;;;3.20;1.72;;;;;;;18.29;51.91;95405.53;1749185;82;21007;-70
2022/09/13 09:20:57;;;;;;;1.80;1.70;;;;;;;18.50;52.62;95410.24;1748997;82;21003;-71
2022/09/13 09:23:45;;;;;;;2.00;1.72;;;;;;;18.30;51.38;95412.62;1713402;84;21011;-70
2022/09/13 09:26:25;;;;;;;1.60;1.50;;;;;;;18.02;51.56;95406.50;1748643;81;21489;-70
2022/09/13 09:29:16;;;;;;;2.42;1.67;;;;;;;18.20;54.10;95405.17;1713232;84;21015;-70
2022/09/13 09:32:13;;;;;;;3.95;1.60;;;;;;;18.29;52.50;95406.01;1713259;84;21059;-70
2022/09/13 09:34:52;;;;;;;1.15;1.00;;;;;;;17.98;50.58;95412.92;1749361;82;21063;-70
2022/09/13 09:37:27;;;;;;;1.55;1.42;;;;;;;17.62;51.91;95411.13;1713238;83;21027;-72
2022/09/13 09:40:01;;;;;;;2.83;1.40;;;;;;;17.44;52.62;95405.36;1749102;82;21523;-70
2022/09/13 09:42:33;;;;;;;2.75;1.50;;;;;;;17.43;53.75;95407.62;1748612;82;20978;-70
2022/09/13 09:45:05;;;;;;;2.37;1.42;;;;;;;17.61;53.40;95410.71;1749484;81;20985;-69
2022/09/13 09:47:37;;;;;;;1.60;1.40;;;;;;;17.83;52.88;95407.88;1749027;81;21479;-70
2022/09/13 09:50:17;;;;;;;1.70;1.60;;;;;;;18.07;52.92;95404.94;1748425;81;21044;-70
2022/09/13 09:53:06;;;;;;;1.98;1.40;;;;;;;18.14;51.63;95401.88;1749018;82;21096;-70
2022/09/13 09:55:52;;;;;;;2.60;1.65;;;;;;;18.12;52.70;95412.24;1749246;82;21013;-70
2022/09/13 09:58:40;;;;;;;3.85;1.77;;;;;;;17.84;51.44;95414.97;1748754;81;21111;-71
2022/09/13 10:01:32;;;;;;;2.27;1.80;;;;;;;17.62;52.75;95413.80;1748425;82;21017;-71
2022/09/13 10:04:18;;;;;;;2.05;1.55;;;;;;;17.42;53.25;95409.43;1747910;81;21057;-71
2022/09/13 10:06:45;;;;;;;2.45;1.55;;;;;;;17.22;53.78;95409.52;1748850;81;21041;-70
2022/09/13 10:09:17;;;;;;;2.17;1.70;;;;;;;17.01;53.74;95408.27;1750087;81;21028;-70
2022/09/13 10:11:56;;;;;;;3.30;1.72;;;;;;;16.77;54.88;95408.03;1756547;82;21068;-71
2022/09/13 10:14:37;;;;;;;2.45;1.40;;;;;;;16.72;56.67;95410.05;1757090;81;21021;-71
2022/09/13 10:17:28;;;;;;;5.42;1.95;;;;;;;16.63;55.68;95416.20;1757195;82;21522;-71
2022/09/13 10:20:02;;;;;;;3.98;1.95;;;;;;;16.58;56.05;95415.98;1757028;82;21001;-71
2022/09/13 10:22:32;;;;;;;3.58;1.80;;;;;;;16.53;56.31;95418.88;1757269;82;21024;-71
2022/09/13 10:25:16;;;;;;;5.00;1.90;;;;;;;16.51;56.96;95414.08;1756941;81;20970;-71
2022/09/13 10:27:51;;;;;;;5.58;2.35;;;;;;;16.53;57.87;95420.20;1755814;81;21036;-71
2022/09/13 10:30:35;;;;;;;3.10;1.90;;;;;;;16.54;57.30;95415.74;1757222;82;21002;-71
2022/09/13 10:33:04;;;;;;;3.60;1.60;;;;;;;16.38;57.36;95414.23;1756825;81;21009;-70
2022/09/13 10:35:32;;;;;;;4.95;2.40;;;;;;;16.25;56.85;95421.87;1757217;82;21025;-70
2022/09/13 10:37:59;;;;;;;2.95;1.60;;;;;;;16.17;57.41;95423.53;1757113;82;21021;-71
2022/09/13 10:40:32;;;;;;;2.37;1.40;;;;;;;16.09;57.50;95421.67;1757207;82;21060;-70
2022/09/13 10:43:03;;;;;;;2.08;1.50;;;;;;;16.06;57.67;95419.63;1757372;82;21002;-69
2022/09/13 10:45:31;;;;;;;1.87;1.50;;;;;;;16.03;57.46;95421.06;1757325;81;20997;-70
2022/09/13 10:48:14;;;;;;;4.15;1.65;;;;;;;15.99;57.90;95426.99;1757368;81;21037;-69
2022/09/13 10:51:03;;;;;;;2.45;1.87;;;;;;;15.96;58.75;95425.80;1757481;82;21506;-70
2022/09/13 10:53:35;;;;;;;2.45;1.57;;;;;;;15.94;58.35;95421.00;1749778;82;21554;-70
2022/09/13 10:56:02;;;;;;;2.80;1.50;;;;;;;15.94;58.89;95427.18;1757126;81;21060;-70
2022/09/13 10:58:29;;;;;;;2.40;2.10;;;;;;;15.90;58.49;95422.05;1756752;81;21068;-70
2022/09/13 11:01:01;;;;;;;2.37;1.77;;;;;;;15.82;59.15;95417.52;1757268;82;21502;-70
2022/09/13 11:03:45;;;;;;;2.90;1.75;;;;;;;15.87;59.62;95418.19;1757264;81;21041;-70
2022/09/13 11:06:42;;;;;;;2.22;1.35;;;;;;;15.89;59.71;95414.53;1757152;81;21005;-70
2022/09/13 11:09:47;;;;;;;2.25;1.47;;;;;;;15.97;60.59;95411.55;1756687;81;21064;-71
2022/09/13 11:12:22;;;;;;;1.60;1.50;;;;;;;16.05;59.56;95411.22;1747870;81;21052;-70
2022/09/13 11:15:17;;;;;;;1.75;1.60;;;;;;;16.12;59.65;95406.04;1749031;81;21033;-70
2022/09/13 11:18:04;;;;;;;2.45;1.70;;;;;;;16.22;59.33;95406.89;1749093;82;21013;-70
2022/09/13 11:21:07;;;;;;;2.35;1.50;;;;;;;16.35;59.16;95407.69;1749017;82;21037;-70
2022/09/13 11:24:06;;;;;;;3.25;1.72;;;;;;;16.46;58.72;95409.42;1633678;88;21074;-70
2022/09/13 11:26:45;;;;;;;2.77;1.80;;;;;;;16.52;57.65;95408.28;1694952;85;21554;-70
2022/09/13 11:29:44;;;;;;;1.75;1.65;;;;;;;16.78;57.70;95393.36;1637691;85;21082;-70
2022/09/13 11:32:25;;;;;;;3.47;1.60;;;;;;;17.85;56.57;95391.33;1749398;82;20954;-71
2022/09/13 11:35:15;;;;;;;1.50;1.40;;;;;;;18.36;53.09;95390.06;1749124;81;20990;-71
2022/09/13 11:38:10;;;;;;;1.57;1.47;;;;;;;18.87;50.71;95386.05;1715916;81;20990;-71
2022/09/13 11:41:26;;;;;;;1.62;1.20;;;;;;;19.24;50.64;95377.72;1749571;81;21037;-70
2022/09/13 11:44:27;;;;;;;;;;;;;;;19.73;48.79;95374.55;1751444;81;21517;-69
2022/09/13 11:47:12;;;;;;;5.05;2.00;;;;;;;19.88;48.10;95366.51;1749284;81;20137;-70
2022/09/13 11:50:13;;;;;;;2.75;1.95;;;;;;;19.68;47.33;95368.16;1748283;81;20983;-70
2022/09/13 11:53:00;;;;;;;2.17;1.57;;;;;;;19.48;47.00;95361.69;1748945;82;21021;-70
2022/09/13 11:55:38;;;;;;;2.35;1.70;;;;;;;19.23;47.95;95364.45;1749245;81;21001;-71
2022/09/13 11:58:09;;;;;;;1.57;1.30;;;;;;;18.99;48.79;95360.84;1748721;81;21087;-71
2022/09/13 12:00:46;;;;;;;2.37;1.60;;;;;;;18.89;49.58;95364.11;1748010;81;20989;-70
2022/09/13 12:03:25;;;;;;;5.40;1.85;;;;;;;18.76;49.96;95363.92;1749210;82;21563;-71
2022/09/13 12:06:00;;;;;;;4.45;1.80;;;;;;;18.59;50.11;95371.47;1749345;81;21056;-70
2022/09/13 12:08:37;;;;;;;3.83;1.50;;;;;;;18.37;49.93;95372.63;1749443;81;21013;-71
2022/09/13 12:11:34;;;;;;;3.62;1.70;;;;;;;18.27;50.70;95375.84;1751922;81;21515;-71
2022/09/13 12:14:06;;;;;;;2.87;1.42;;;;;;;18.18;50.44;95375.00;1757219;81;21550;-70
2022/09/13 12:16:38;;;;;;;3.30;1.70;;;;;;;17.93;48.88;95373.59;1756590;81;21012;-71